Time;durP1;ratioP1;P1;durP2;ratioP2;P2;SDS_P1;SDS_P2;PMS_P1;PMS_P2;Temp;Humidity;BMP_temperature;BMP_pressure;BME280_temperature;BME280_humidity;BME280_pressure;Samples;Min_cycle;Max_cycle;Signal;HPM_P1;HPM_P2
2023/10/19 00:01:17;;;;;;;19.30;15.73;;;7.40;99.90;;;;;;5105760;27;20506;-79
2023/10/19 00:03:45;;;;;;;17.10;14.50;;;7.40;99.90;;;;;;5104514;27;20483;-79
2023/10/19 00:06:11;;;;;;;16.60;13.37;;;7.40;99.90;;;;;;5105709;27;20465;-79
2023/10/19 00:08:41;;;;;;;19.90;13.17;;;7.40;99.90;;;;;;5110383;27;20460;-79
2023/10/19 00:11:08;;;;;;;17.53;13.73;;;7.30;99.90;;;;;;5115387;27;20588;-79
2023/10/19 00:13:36;;;;;;;17.93;14.60;;;7.20;99.90;;;;;;5108776;27;20456;-79
2023/10/19 00:16:10;;;;;;;14.27;12.33;;;7.20;99.90;;;;;;5115352;27;20511;-79
2023/10/19 00:18:42;;;;;;;14.80;13.07;;;7.10;99.90;;;;;;5115587;27;20912;-79
2023/10/19 00:21:18;;;;;;;16.93;13.17;;;7.10;99.90;;;;;;5115341;27;20477;-78
2023/10/19 00:23:47;;;;;;;18.50;13.50;;;7.00;99.90;;;;;;5110263;27;20805;-79
2023/10/19 00:26:15;;;;;;;18.13;14.57;;;7.00;99.90;;;;;;5110495;27;20476;-78
2023/10/19 00:28:45;;;;;;;17.53;13.63;;;7.00;99.90;;;;;;5114901;27;20899;-79
2023/10/19 00:31:12;;;;;;;15.97;14.30;;;6.90;99.90;;;;;;5114174;27;20454;-79
2023/10/19 00:33:40;;;;;;;16.73;14.30;;;6.80;99.90;;;;;;5107402;27;20453;-79
2023/10/19 00:36:08;;;;;;;18.93;13.13;;;6.90;99.90;;;;;;5110676;27;20455;-79
2023/10/19 00:38:47;;;;;;;18.50;13.30;;;6.90;99.90;;;;;;5114122;27;20448;-79
2023/10/19 00:41:20;;;;;;;18.87;16.30;;;6.80;99.90;;;;;;5107028;27;20837;-78
2023/10/19 00:43:49;;;;;;;21.13;16.50;;;6.70;99.90;;;;;;5116355;27;20482;-78
2023/10/19 00:46:21;;;;;;;20.70;15.93;;;6.60;99.90;;;;;;5120129;27;20461;-78
2023/10/19 00:48:53;;;;;;;18.00;14.97;;;6.60;99.90;;;;;;5114562;27;20466;-78
2023/10/19 00:51:41;;;;;;;20.63;14.90;;;6.60;99.90;;;;;;5128127;27;20446;-78
2023/10/19 00:54:15;;;;;;;17.53;14.17;;;6.60;99.90;;;;;;5115196;27;20542;-78
2023/10/19 00:56:47;;;;;;;24.83;16.40;;;6.60;99.90;;;;;;5108630;27;20899;-79
2023/10/19 00:59:23;;;;;;;19.07;15.23;;;6.60;99.90;;;;;;5106169;27;20446;-78
2023/10/19 01:01:53;;;;;;;21.87;16.03;;;6.60;99.90;;;;;;5121320;27;20497;-78
2023/10/19 01:04:23;;;;;;;18.07;13.63;;;6.60;99.90;;;;;;5118557;27;20516;-79
2023/10/19 01:07:00;;;;;;;19.07;15.47;;;6.60;99.90;;;;;;5116504;27;20534;-79
2023/10/19 01:09:28;;;;;;;20.80;15.43;;;6.50;99.90;;;;;;5108595;27;20524;-78
2023/10/19 01:11:58;;;;;;;20.37;13.67;;;6.50;99.90;;;;;;5118729;27;20575;-78
2023/10/19 01:14:27;;;;;;;17.40;14.00;;;6.50;99.90;;;;;;5112540;27;20467;-78
2023/10/19 01:16:56;;;;;;;18.97;14.30;;;6.40;99.90;;;;;;5126254;27;20471;-78
2023/10/19 01:19:27;;;;;;;16.63;14.57;;;6.50;99.90;;;;;;5120767;27;20788;-78
2023/10/19 01:22:00;;;;;;;16.53;14.13;;;6.50;99.90;;;;;;5117306;27;20925;-78
2023/10/19 01:24:39;;;;;;;18.00;14.60;;;6.40;99.90;;;;;;5112306;27;21134;-78
2023/10/19 01:27:08;;;;;;;20.80;15.37;;;6.40;99.90;;;;;;5110677;27;20458;-79
2023/10/19 01:29:37;;;;;;;17.50;14.70;;;6.50;99.90;;;;;;5106306;27;20461;-79
2023/10/19 01:32:08;;;;;;;21.43;16.10;;;6.40;99.90;;;;;;5108500;27;20469;-79
2023/10/19 01:34:36;;;;;;;19.73;15.30;;;6.40;99.90;;;;;;5105225;27;20531;-79
2023/10/19 01:37:04;;;;;;;18.80;14.00;;;6.40;99.90;;;;;;5107725;27;20493;-78
2023/10/19 01:39:32;;;;;;;22.50;16.93;;;6.40;99.90;;;;;;5110074;27;20476;-79
2023/10/19 01:41:59;;;;;;;18.63;14.80;;;6.30;99.90;;;;;;5116096;27;20669;-78
2023/10/19 01:44:26;;;;;;;17.97;13.20;;;6.30;99.90;;;;;;5110226;27;20888;-78
2023/10/19 01:46:53;;;;;;;18.77;14.80;;;6.30;99.90;;;;;;5116066;27;20454;-79
2023/10/19 01:49:26;;;;;;;19.67;15.00;;;6.30;99.90;;;;;;5114793;27;20473;-78
2023/10/19 01:51:54;;;;;;;19.83;15.10;;;6.30;99.90;;;;;;5117669;27;20434;-78
2023/10/19 01:54:23;;;;;;;19.23;16.80;;;6.20;99.90;;;;;;5117208;27;20563;-78
2023/10/19 01:56:54;;;;;;;17.67;14.67;;;6.20;99.90;;;;;;5116422;27;20536;-78
2023/10/19 01:59:21;;;;;;;17.67;14.17;;;6.30;99.90;;;;;;5110841;27;20921;-78
2023/10/19 02:01:49;;;;;;;18.70;14.63;;;6.30;99.90;;;;;;5112494;27;20456;-79
2023/10/19 02:04:15;;;;;;;19.93;15.00;;;6.20;99.90;;;;;;5109607;27;20798;-79
2023/10/19 02:06:46;;;;;;;20.57;14.83;;;6.20;99.90;;;;;;5107927;27;20449;-79
2023/10/19 02:09:21;;;;;;;24.17;16.07;;;6.20;99.90;;;;;;5113470;27;20445;-79
2023/10/19 02:11:52;;;;;;;17.23;14.83;;;6.20;99.90;;;;;;5108586;27;20477;-78
2023/10/19 02:14:19;;;;;;;18.00;15.07;;;6.20;99.90;;;;;;5104556;27;20448;-78
2023/10/19 02:16:50;;;;;;;19.37;15.60;;;6.10;99.90;;;;;;5121800;27;20457;-79
2023/10/19 02:19:17;;;;;;;23.47;16.97;;;6.10;99.90;;;;;;5104713;27;20446;-78
2023/10/19 02:21:47;;;;;;;20.90;15.73;;;6.00;99.90;;;;;;5117519;27;21233;-79
2023/10/19 02:24:15;;;;;;;17.73;14.47;;;6.10;99.90;;;;;;5112472;27;20482;-79
2023/10/19 02:26:42;;;;;;;23.87;19.50;;;6.00;99.90;;;;;;5108584;27;20470;-78
2023/10/19 02:29:10;;;;;;;21.30;16.33;;;6.10;99.90;;;;;;5106356;27;20446;-78
2023/10/19 02:31:37;;;;;;;21.77;16.47;;;6.00;99.90;;;;;;5110103;27;21163;-78
2023/10/19 02:34:05;;;;;;;21.70;15.30;;;6.00;99.90;;;;;;5124378;27;20445;-79
2023/10/19 02:36:32;;;;;;;18.50;14.53;;;6.00;99.90;;;;;;5119183;27;20510;-78
2023/10/19 02:38:59;;;;;;;20.10;16.70;;;6.00;99.90;;;;;;5118955;27;20915;-78
2023/10/19 02:41:26;;;;;;;21.37;16.57;;;6.00;99.90;;;;;;5112305;27;20924;-78
2023/10/19 02:44:02;;;;;;;20.77;15.37;;;6.00;99.90;;;;;;5117743;27;20446;-78
2023/10/19 02:46:30;;;;;;;21.07;16.87;;;5.90;99.90;;;;;;5115880;27;21170;-78
2023/10/19 02:48:57;;;;;;;20.80;17.67;;;5.90;99.90;;;;;;5117204;27;20446;-78
2023/10/19 02:51:23;;;;;;;17.23;14.17;;;5.90;99.90;;;;;;5113438;27;20524;-79
2023/10/19 02:53:50;;;;;;;22.30;15.97;;;5.90;99.90;;;;;;5118943;27;20536;-78
2023/10/19 02:56:19;;;;;;;20.03;15.00;;;5.90;99.90;;;;;;5110835;27;20468;-79
2023/10/19 02:58:49;;;;;;;20.77;17.67;;;6.00;99.90;;;;;;5105179;27;20437;-79
2023/10/19 03:01:21;;;;;;;20.57;16.70;;;5.90;99.90;;;;;;5104734;27;20789;-78
2023/10/19 03:03:53;;;;;;;22.03;16.97;;;6.00;99.90;;;;;;5130158;27;20545;-78
2023/10/19 03:06:20;;;;;;;18.57;16.10;;;6.00;99.90;;;;;;5116346;27;20489;-78
2023/10/19 03:08:47;;;;;;;18.93;16.73;;;6.00;99.90;;;;;;5105639;27;20458;-78
2023/10/19 03:11:13;;;;;;;22.20;16.00;;;6.00;99.90;;;;;;5105352;27;20543;-78
2023/10/19 03:13:44;;;;;;;22.73;16.60;;;6.00;99.90;;;;;;5119823;27;20909;-78
2023/10/19 03:16:10;;;;;;;23.30;17.97;;;6.00;99.90;;;;;;5105549;27;21076;-78
2023/10/19 03:18:38;;;;;;;23.63;18.33;;;5.90;99.90;;;;;;5102685;27;20452;-78
2023/10/19 03:21:07;;;;;;;22.80;16.33;;;6.00;99.90;;;;;;5116602;27;20545;-78
2023/10/19 03:23:34;;;;;;;25.10;19.10;;;6.00;99.90;;;;;;5105777;27;20461;-78
2023/10/19 03:26:27;;;;;;;23.37;16.87;;;6.00;99.90;;;;;;5104356;27;20488;-78
2023/10/19 03:28:55;;;;;;;31.03;19.73;;;6.00;99.90;;;;;;5115261;27;20446;-78
2023/10/19 03:31:24;;;;;;;24.07;17.57;;;6.00;99.90;;;;;;5104070;27;20995;-77
2023/10/19 03:33:54;;;;;;;21.50;17.77;;;5.90;99.90;;;;;;5119234;27;20942;-78
2023/10/19 03:36:24;;;;;;;21.97;16.20;;;5.90;99.90;;;;;;5117102;27;20455;-78
2023/10/19 03:38:53;;;;;;;23.67;16.20;;;5.90;99.90;;;;;;5118528;27;20528;-78
2023/10/19 03:41:25;;;;;;;25.40;16.80;;;5.90;99.90;;;;;;5116963;27;20438;-78
2023/10/19 03:43:54;;;;;;;20.60;18.10;;;5.80;99.90;;;;;;5111625;27;20471;-79
2023/10/19 03:46:28;;;;;;;22.83;17.83;;;5.90;99.90;;;;;;5103251;27;20491;-78
2023/10/19 03:48:58;;;;;;;23.53;18.63;;;5.80;99.90;;;;;;5115309;27;20507;-78
2023/10/19 03:51:27;;;;;;;22.63;18.17;;;5.70;99.90;;;;;;5108791;27;20930;-78
2023/10/19 03:53:58;;;;;;;22.40;17.80;;;5.60;99.90;;;;;;5122139;27;20845;-78
2023/10/19 03:56:25;;;;;;;22.77;19.20;;;5.70;99.90;;;;;;5111397;27;20453;-78
2023/10/19 03:58:52;;;;;;;22.10;17.73;;;5.60;99.90;;;;;;5104395;27;20818;-79
2023/10/19 04:01:20;;;;;;;19.77;17.27;;;5.60;99.90;;;;;;5104489;27;20505;-79
2023/10/19 04:03:49;;;;;;;23.63;19.23;;;5.70;99.90;;;;;;5120490;27;20476;-78
2023/10/19 04:06:15;;;;;;;24.80;18.90;;;5.70;99.90;;;;;;5111360;27;20542;-78
2023/10/19 04:08:50;;;;;;;21.80;18.20;;;5.70;99.90;;;;;;5110008;27;20850;-78
2023/10/19 04:11:22;;;;;;;21.83;17.00;;;5.60;99.90;;;;;;5116503;27;20476;-78
2023/10/19 04:13:53;;;;;;;23.47;17.23;;;5.70;99.90;;;;;;5116316;27;20553;-78
2023/10/19 04:16:20;;;;;;;24.10;19.27;;;5.60;99.90;;;;;;5118241;27;20460;-78
2023/10/19 04:18:48;;;;;;;21.13;17.30;;;5.70;99.90;;;;;;5113414;27;20472;-78
2023/10/19 04:21:15;;;;;;;25.17;19.43;;;5.60;99.90;;;;;;5112645;27;20461;-78
2023/10/19 04:23:46;;;;;;;24.43;18.13;;;5.60;99.90;;;;;;5113483;27;20915;-78
2023/10/19 04:26:14;;;;;;;25.10;20.37;;;5.60;99.90;;;;;;5107407;27;20493;-78
2023/10/19 04:28:51;;;;;;;23.03;20.00;;;5.50;99.90;;;;;;5133023;27;20447;-77
2023/10/19 04:31:19;;;;;;;21.40;17.90;;;5.60;99.90;;;;;;5110005;27;20462;-78
2023/10/19 04:33:47;;;;;;;24.60;18.97;;;5.60;99.90;;;;;;5111136;27;20469;-78
2023/10/19 04:36:21;;;;;;;26.23;18.90;;;5.50;99.90;;;;;;5107583;27;20461;-78
2023/10/19 04:38:49;;;;;;;22.17;16.57;;;5.50;99.90;;;;;;5117513;27;20463;-78
2023/10/19 04:41:16;;;;;;;24.60;19.43;;;5.50;99.90;;;;;;5112535;27;20522;-79
2023/10/19 04:43:49;;;;;;;28.37;18.30;;;5.50;99.90;;;;;;5113670;27;20494;-78
2023/10/19 04:46:18;;;;;;;25.97;19.97;;;5.60;99.90;;;;;;5115544;27;21154;-78
2023/10/19 04:48:45;;;;;;;22.57;18.60;;;5.60;99.90;;;;;;5115677;27;20469;-78
2023/10/19 04:51:12;;;;;;;27.63;19.73;;;5.50;99.90;;;;;;5116879;27;20465;-78
2023/10/19 04:53:40;;;;;;;37.27;20.30;;;5.50;99.90;;;;;;5118910;27;20462;-78
2023/10/19 04:56:09;;;;;;;23.40;17.13;;;5.60;99.90;;;;;;5123509;27;20796;-79
2023/10/19 04:58:37;;;;;;;24.13;18.00;;;5.60;99.90;;;;;;5128932;27;20462;-78
2023/10/19 05:01:05;;;;;;;25.37;18.37;;;5.60;99.90;;;;;;5111667;27;20544;-78
2023/10/19 05:03:32;;;;;;;24.97;19.73;;;5.50;99.90;;;;;;5107634;27;20463;-78
2023/10/19 05:05:59;;;;;;;27.30;20.60;;;5.50;99.90;;;;;;5119749;27;20517;-79
2023/10/19 05:08:27;;;;;;;26.50;19.03;;;5.50;99.90;;;;;;5108843;27;20649;-79
2023/10/19 05:10:55;;;;;;;23.03;19.40;;;5.40;99.90;;;;;;5113785;27;20512;-79
2023/10/19 05:13:25;;;;;;;25.40;19.40;;;5.40;99.90;;;;;;5113158;27;20569;-79
2023/10/19 05:15:52;;;;;;;30.90;21.03;;;5.40;99.90;;;;;;5113425;27;20529;-79
2023/10/19 05:18:20;;;;;;;23.33;19.63;;;5.50;99.90;;;;;;5110184;27;20935;-78
2023/10/19 05:20:47;;;;;;;21.07;18.77;;;5.50;99.90;;;;;;5110885;27;21035;-79
2023/10/19 05:23:14;;;;;;;21.90;17.80;;;5.50;99.90;;;;;;5116756;27;20461;-78
2023/10/19 05:25:41;;;;;;;23.63;19.53;;;5.50;99.90;;;;;;5112185;27;20865;-79
2023/10/19 05:28:09;;;;;;;24.67;17.97;;;5.50;99.90;;;;;;5114492;27;20748;-79
2023/10/19 05:30:37;;;;;;;20.80;18.30;;;5.50;99.90;;;;;;5106991;27;20504;-80
2023/10/19 05:33:06;;;;;;;22.50;19.23;;;5.50;99.90;;;;;;5118819;27;20931;-79
2023/10/19 05:35:34;;;;;;;27.60;22.27;;;5.50;99.90;;;;;;5116529;27;20461;-79
2023/10/19 05:38:02;;;;;;;27.47;19.20;;;5.60;99.90;;;;;;5112081;27;20817;-78
2023/10/19 05:40:30;;;;;;;26.60;18.40;;;5.60;99.90;;;;;;5110087;27;20475;-78
2023/10/19 05:43:00;;;;;;;24.13;19.50;;;5.50;99.90;;;;;;5119205;27;20468;-78
2023/10/19 05:45:28;;;;;;;33.10;19.17;;;5.60;99.90;;;;;;5110963;27;20520;-79
2023/10/19 05:47:58;;;;;;;26.10;20.47;;;5.60;99.90;;;;;;5099791;27;20477;-78
2023/10/19 05:50:25;;;;;;;30.07;19.97;;;5.60;99.90;;;;;;5108405;27;20573;-79
2023/10/19 05:52:52;;;;;;;22.07;17.17;;;5.60;99.90;;;;;;5113084;27;20522;-78
2023/10/19 05:55:21;;;;;;;26.03;18.70;;;5.60;99.90;;;;;;5105369;27;20544;-79
2023/10/19 05:57:49;;;;;;;23.23;19.00;;;5.60;99.90;;;;;;5116583;27;20466;-78
2023/10/19 06:00:17;;;;;;;26.60;19.83;;;5.60;99.90;;;;;;5116749;27;20452;-79
2023/10/19 06:02:46;;;;;;;21.27;18.93;;;5.60;99.90;;;;;;5115965;27;20466;-79
2023/10/19 06:05:16;;;;;;;28.33;20.00;;;5.70;99.90;;;;;;5111715;27;20467;-79
2023/10/19 06:07:43;;;;;;;21.53;18.40;;;5.80;99.90;;;;;;5116617;27;20558;-80
2023/10/19 06:10:15;;;;;;;21.40;18.00;;;5.80;99.90;;;;;;5107212;27;20569;-78
2023/10/19 06:12:43;;;;;;;22.47;17.80;;;5.70;99.90;;;;;;5106245;27;20467;-78
2023/10/19 06:15:12;;;;;;;22.70;20.30;;;5.80;99.90;;;;;;5114595;27;20845;-78
2023/10/19 06:17:39;;;;;;;25.50;21.93;;;5.80;99.90;;;;;;5111563;27;20465;-80
2023/10/19 06:20:08;;;;;;;22.70;19.53;;;5.90;99.90;;;;;;5113178;27;20545;-80
2023/10/19 06:22:37;;;;;;;24.53;20.33;;;6.00;99.90;;;;;;5110697;27;20792;-80
2023/10/19 06:25:06;;;;;;;25.87;20.63;;;6.00;99.90;;;;;;5107840;27;20489;-80
2023/10/19 06:27:33;;;;;;;23.70;17.97;;;6.10;99.90;;;;;;5117993;27;20527;-80
2023/10/19 06:30:00;;;;;;;24.00;19.63;;;6.20;99.90;;;;;;5115469;27;20449;-81
2023/10/19 06:32:27;;;;;;;26.13;21.03;;;6.30;99.90;;;;;;5114120;27;20554;-80
2023/10/19 06:34:54;;;;;;;26.70;20.63;;;6.20;99.90;;;;;;5105749;27;20447;-81
2023/10/19 06:37:21;;;;;;;26.53;19.97;;;6.30;99.90;;;;;;5112604;27;20523;-81
2023/10/19 06:39:51;;;;;;;26.80;20.00;;;6.40;99.90;;;;;;5106745;27;20539;-81
2023/10/19 06:42:18;;;;;;;26.07;21.80;;;6.50;99.90;;;;;;5109329;27;20469;-80
2023/10/19 06:44:45;;;;;;;23.87;20.27;;;6.60;99.90;;;;;;5110437;27;20449;-80
2023/10/19 06:47:13;;;;;;;31.07;18.60;;;6.60;99.90;;;;;;5117712;27;20493;-81
2023/10/19 06:49:40;;;;;;;26.50;20.60;;;6.80;99.90;;;;;;5118696;27;20539;-81
2023/10/19 06:52:11;;;;;;;21.03;18.70;;;6.90;99.90;;;;;;5115838;27;20555;-81
2023/10/19 06:54:39;;;;;;;24.40;17.40;;;7.00;99.90;;;;;;5110867;27;20444;-81
2023/10/19 06:57:08;;;;;;;24.57;19.07;;;7.10;99.90;;;;;;5109372;27;21210;-81
2023/10/19 06:59:35;;;;;;;28.40;19.87;;;7.10;99.90;;;;;;5103533;27;20450;-81
2023/10/19 07:02:02;;;;;;;25.30;20.00;;;7.30;99.90;;;;;;5116784;27;20849;-81
2023/10/19 07:04:30;;;;;;;23.10;20.60;;;7.30;99.90;;;;;;5125105;27;20469;-80
2023/10/19 07:06:57;;;;;;;24.47;20.60;;;7.40;99.90;;;;;;5111646;27;20471;-81
2023/10/19 07:09:24;;;;;;;30.43;20.87;;;7.30;99.90;;;;;;5110496;27;20564;-79
2023/10/19 07:11:54;;;;;;;22.97;20.47;;;7.40;99.90;;;;;;5102242;27;20492;-79
2023/10/19 07:14:23;;;;;;;21.03;17.80;;;7.50;99.90;;;;;;5104768;27;20597;-79
2023/10/19 07:16:51;;;;;;;22.60;19.60;;;7.60;99.90;;;;;;5114470;27;20874;-80
2023/10/19 07:19:19;;;;;;;23.23;19.80;;;7.60;99.90;;;;;;5105143;27;20471;-79
2023/10/19 07:21:48;;;;;;;25.60;19.20;;;7.60;99.90;;;;;;5115043;27;20533;-79
2023/10/19 07:24:18;;;;;;;25.20;19.43;;;7.70;99.90;;;;;;5106865;27;20604;-79
2023/10/19 07:26:53;;;;;;;23.10;18.30;;;7.80;99.90;;;;;;5110891;27;20810;-79
2023/10/19 07:29:22;;;;;;;25.10;19.10;;;7.90;99.90;;;;;;5106050;27;20476;-79
2023/10/19 07:31:51;;;;;;;23.90;19.20;;;8.10;99.90;;;;;;5108985;27;20543;-79
2023/10/19 07:34:24;;;;;;;21.47;18.70;;;8.20;99.90;;;;;;5112214;27;20465;-79
2023/10/19 07:36:53;;;;;;;22.90;18.90;;;8.10;99.90;;;;;;5113162;27;20468;-79
2023/10/19 07:39:22;;;;;;;25.00;19.60;;;8.10;99.90;;;;;;5105011;27;20457;-79
2023/10/19 07:41:49;;;;;;;21.77;16.63;;;8.20;99.90;;;;;;5114651;27;20529;-79
2023/10/19 07:44:16;;;;;;;23.13;19.03;;;8.30;99.90;;;;;;5122236;27;20493;-79
2023/10/19 07:46:45;;;;;;;22.63;16.90;;;8.50;99.90;;;;;;5113766;27;20527;-79
2023/10/19 07:49:14;;;;;;;26.00;19.40;;;8.60;99.90;;;;;;5113240;27;20895;-79
2023/10/19 07:51:46;;;;;;;21.60;18.50;;;8.80;99.90;;;;;;5122666;27;20482;-79
2023/10/19 07:54:13;;;;;;;24.90;19.50;;;8.90;99.90;;;;;;5108819;27;20556;-79
2023/10/19 07:56:40;;;;;;;23.53;20.33;;;8.90;99.90;;;;;;5116232;27;20477;-80
2023/10/19 07:59:07;;;;;;;23.60;17.93;;;8.80;99.90;;;;;;5114944;27;20878;-79
2023/10/19 08:01:36;;;;;;;25.47;20.00;;;8.80;99.90;;;;;;5112843;27;20532;-80
2023/10/19 08:04:05;;;;;;;20.20;16.70;;;8.90;99.90;;;;;;5116198;27;20518;-79
2023/10/19 08:06:32;;;;;;;28.70;23.20;;;8.90;99.90;;;;;;5116523;27;20489;-79
2023/10/19 08:08:59;;;;;;;21.40;17.40;;;8.80;99.90;;;;;;5114383;27;20502;-79
2023/10/19 08:11:25;;;;;;;26.20;18.00;;;9.10;99.90;;;;;;5117757;27;20481;-80
2023/10/19 08:13:52;;;;;;;21.50;19.20;;;9.10;99.90;;;;;;5109732;27;20510;-78
2023/10/19 08:16:20;;;;;;;25.93;19.10;;;9.10;99.90;;;;;;5116360;27;20479;-79
2023/10/19 08:18:47;;;;;;;20.70;17.00;;;9.30;99.90;;;;;;5113721;27;20445;-79
2023/10/19 08:21:15;;;;;;;22.47;18.53;;;9.50;99.90;;;;;;5118864;27;20472;-79
2023/10/19 08:23:45;;;;;;;20.73;16.13;;;9.60;99.90;;;;;;5115390;27;20438;-79
2023/10/19 08:26:12;;;;;;;23.60;19.23;;;9.70;99.90;;;;;;5113185;27;20542;-79
2023/10/19 08:28:39;;;;;;;23.80;17.40;;;9.50;99.90;;;;;;5113289;27;20585;-79
2023/10/19 08:31:10;;;;;;;22.73;16.90;;;9.50;99.90;;;;;;5119196;27;20446;-79
2023/10/19 08:33:38;;;;;;;21.77;17.50;;;9.40;99.90;;;;;;5119995;27;20544;-78
2023/10/19 08:36:06;;;;;;;21.90;17.23;;;9.50;99.90;;;;;;5118394;27;20536;-77
2023/10/19 08:38:34;;;;;;;26.30;19.63;;;9.70;99.90;;;;;;5106994;27;20442;-79
2023/10/19 08:41:02;;;;;;;20.33;16.27;;;9.70;99.90;;;;;;5111304;27;20465;-79
2023/10/19 08:43:29;;;;;;;19.67;16.57;;;9.70;99.90;;;;;;5109449;27;20449;-79
2023/10/19 08:45:57;;;;;;;21.03;17.13;;;9.80;99.90;;;;;;5105618;27;20527;-79
2023/10/19 08:48:24;;;;;;;19.07;16.10;;;9.70;99.90;;;;;;5109177;27;20481;-79
2023/10/19 08:50:52;;;;;;;23.40;18.00;;;9.80;99.90;;;;;;5111556;27;20544;-79
2023/10/19 08:53:22;;;;;;;19.60;15.80;;;9.80;99.90;;;;;;5114278;27;20476;-79
2023/10/19 08:55:50;;;;;;;24.43;19.37;;;9.90;99.90;;;;;;5112604;27;20445;-79
2023/10/19 08:58:19;;;;;;;24.00;17.60;;;10.10;99.90;;;;;;5114370;27;20432;-79
2023/10/19 09:00:48;;;;;;;19.43;15.80;;;10.20;99.90;;;;;;5118637;27;20514;-79
2023/10/19 09:03:16;;;;;;;20.03;17.63;;;10.20;99.90;;;;;;5113818;27;20449;-79
2023/10/19 09:05:46;;;;;;;23.07;16.50;;;10.00;99.90;;;;;;5111290;27;20462;-78
2023/10/19 09:08:17;;;;;;;19.97;17.80;;;10.20;99.90;;;;;;5111628;27;20484;-78
2023/10/19 09:10:46;;;;;;;22.80;17.90;;;10.40;99.90;;;;;;5112459;27;20496;-79
2023/10/19 09:13:18;;;;;;;23.37;16.20;;;10.40;99.90;;;;;;5107249;27;20561;-78
2023/10/19 09:15:45;;;;;;;22.00;15.70;;;10.20;99.90;;;;;;5119486;27;20476;-79
2023/10/19 09:18:17;;;;;;;21.47;16.83;;;10.20;99.90;;;;;;5118088;27;20464;-79
2023/10/19 09:20:53;;;;;;;21.80;17.33;;;10.30;99.90;;;;;;5111509;27;20441;-79
2023/10/19 09:23:25;;;;;;;19.43;15.03;;;10.60;99.90;;;;;;5121595;27;20798;-79
2023/10/19 09:25:53;;;;;;;17.50;14.50;;;11.00;99.90;;;;;;5114338;27;20653;-79
2023/10/19 09:28:23;;;;;;;17.60;14.97;;;11.00;99.90;;;;;;5115392;27;20843;-79
2023/10/19 09:30:51;;;;;;;21.00;15.17;;;10.80;99.90;;;;;;5112050;27;20488;-79
2023/10/19 09:33:18;;;;;;;18.77;15.50;;;10.60;99.90;;;;;;5138951;27;20476;-79
2023/10/19 09:35:48;;;;;;;19.10;15.70;;;10.50;99.90;;;;;;5110341;27;20435;-79
2023/10/19 09:38:16;;;;;;;17.87;15.00;;;10.60;99.90;;;;;;5119430;27;20465;-78
2023/10/19 09:40:43;;;;;;;17.27;14.90;;;10.80;99.90;;;;;;5110350;27;20998;-80
2023/10/19 09:43:17;;;;;;;21.60;15.63;;;10.90;99.90;;;;;;5124076;27;20462;-79
2023/10/19 09:45:51;;;;;;;19.27;14.37;;;10.80;99.90;;;;;;5104923;27;20895;-79
2023/10/19 09:48:19;;;;;;;19.63;15.87;;;10.80;99.90;;;;;;5111851;27;20493;-79
2023/10/19 09:50:51;;;;;;;20.07;15.83;;;11.10;99.90;;;;;;5125618;27;20554;-79
2023/10/19 09:53:19;;;;;;;21.73;15.53;;;10.90;99.90;;;;;;5111620;27;20463;-79
2023/10/19 09:55:50;;;;;;;19.77;15.77;;;11.00;99.90;;;;;;5112833;27;20988;-79
2023/10/19 09:58:18;;;;;;;19.37;14.57;;;11.10;99.90;;;;;;5113008;27;20446;-78
2023/10/19 10:00:50;;;;;;;20.60;15.20;;;10.90;99.90;;;;;;5118751;27;20456;-79
2023/10/19 10:03:46;;;;;;;19.13;14.60;;;11.20;99.90;;;;;;5113011;27;20795;-79
2023/10/19 10:06:14;;;;;;;19.70;15.10;;;11.60;99.90;;;;;;5121209;27;20433;-78
2023/10/19 10:08:43;;;;;;;20.30;14.03;;;12.00;99.90;;;;;;5120946;27;20461;-78
2023/10/19 10:11:21;;;;;;;20.13;15.77;;;11.70;99.90;;;;;;5133836;27;20472;-79
2023/10/19 10:13:50;;;;;;;21.00;14.43;;;11.60;99.90;;;;;;5118141;27;20480;-79
2023/10/19 10:16:20;;;;;;;18.00;14.73;;;12.00;99.90;;;;;;5117304;27;20450;-79
2023/10/19 10:18:50;;;;;;;18.83;13.90;;;11.90;99.90;;;;;;5122663;27;20923;-78
2023/10/19 10:21:20;;;;;;;19.53;14.67;;;11.60;99.90;;;;;;5120745;27;20454;-78
2023/10/19 10:23:50;;;;;;;19.70;14.43;;;11.40;99.90;;;;;;5117790;27;20557;-79
2023/10/19 10:26:19;;;;;;;23.67;14.13;;;11.70;99.90;;;;;;5114687;27;20468;-79
2023/10/19 10:29:09;;;;;;;17.23;15.40;;;12.00;99.90;;;;;;5119977;27;20458;-78
2023/10/19 10:31:42;;;;;;;17.47;15.57;;;11.90;99.90;;;;;;5111424;27;20441;-79
2023/10/19 10:34:10;;;;;;;18.87;16.33;;;12.30;99.90;;;;;;5111993;27;20464;-79
2023/10/19 10:36:58;;;;;;;21.47;16.13;;;12.30;99.90;;;;;;5104734;27;20447;-78
2023/10/19 10:39:27;;;;;;;17.37;14.67;;;11.90;99.90;;;;;;5115518;27;20543;-78
2023/10/19 10:41:57;;;;;;;19.37;15.87;;;12.00;99.90;;;;;;5106915;27;20479;-78
2023/10/19 10:44:38;;;;;;;21.70;16.60;;;12.00;99.90;;;;;;5115268;27;20531;-78
2023/10/19 10:47:09;;;;;;;19.07;14.57;;;12.00;99.90;;;;;;5104859;27;20977;-78
2023/10/19 10:49:47;;;;;;;19.83;16.10;;;12.10;99.90;;;;;;5120500;27;20934;-79
2023/10/19 10:52:24;;;;;;;17.00;15.20;;;12.10;99.90;;;;;;5113941;27;20458;-79
2023/10/19 10:54:51;;;;;;;17.50;14.87;;;12.20;99.90;;;;;;5105917;27;20476;-79
2023/10/19 10:57:17;;;;;;;22.50;15.27;;;12.30;99.90;;;;;;5109122;27;20997;-78
2023/10/19 10:59:45;;;;;;;16.47;14.50;;;12.50;99.90;;;;;;5105773;27;20486;-78
2023/10/19 11:02:21;;;;;;;16.93;12.47;;;12.70;99.90;;;;;;5109538;27;20467;-78
2023/10/19 11:04:48;;;;;;;20.87;14.40;;;12.80;99.90;;;;;;5116710;27;20450;-78
2023/10/19 11:07:19;;;;;;;17.20;15.07;;;12.70;99.90;;;;;;5111894;27;20545;-79
2023/10/19 11:09:47;;;;;;;16.47;14.70;;;13.00;99.90;;;;;;5104304;27;20457;-79
2023/10/19 11:12:15;;;;;;;20.20;15.00;;;12.90;99.90;;;;;;5105344;27;20832;-78
2023/10/19 11:14:53;;;;;;;15.70;13.80;;;12.80;99.90;;;;;;5103916;27;20467;-78
2023/10/19 11:17:27;;;;;;;19.03;17.00;;;12.50;99.90;;;;;;5109834;27;20464;-78
2023/10/19 11:19:57;;;;;;;19.53;16.00;;;12.30;99.90;;;;;;5111726;27;20484;-79
2023/10/19 11:22:24;;;;;;;17.03;13.30;;;12.50;99.90;;;;;;5113520;27;20520;-78
2023/10/19 11:24:52;;;;;;;19.57;14.63;;;12.50;99.90;;;;;;5113630;27;20970;-78
2023/10/19 11:27:26;;;;;;;18.67;13.97;;;12.50;99.90;;;;;;5108223;27;20514;-79
2023/10/19 11:29:57;;;;;;;15.50;13.23;;;12.70;99.90;;;;;;5111447;27;20473;-78
2023/10/19 11:32:26;;;;;;;18.43;14.97;;;12.80;99.90;;;;;;5103893;27;20948;-79
2023/10/19 11:34:54;;;;;;;19.73;15.57;;;13.10;99.10;;;;;;5105565;27;20444;-78
2023/10/19 11:37:22;;;;;;;16.07;13.67;;;13.20;99.90;;;;;;5105814;27;20456;-78
2023/10/19 11:39:49;;;;;;;15.33;12.97;;;13.30;98.80;;;;;;5111338;27;20464;-78
2023/10/19 11:42:18;;;;;;;20.97;15.20;;;13.40;99.60;;;;;;5113398;27;20544;-79
2023/10/19 11:44:45;;;;;;;19.17;14.40;;;13.20;98.30;;;;;;5126070;27;20447;-79
2023/10/19 11:47:13;;;;;;;20.00;14.37;;;13.30;98.60;;;;;;5113157;27;20483;-79
2023/10/19 11:49:42;;;;;;;18.33;14.07;;;13.60;98.20;;;;;;5108558;27;20528;-79
2023/10/19 11:52:09;;;;;;;18.20;14.73;;;13.30;97.10;;;;;;5108815;27;20535;-80
2023/10/19 11:54:36;;;;;;;19.87;15.37;;;13.30;99.20;;;;;;5105224;27;20502;-80
2023/10/19 11:57:03;;;;;;;19.33;14.13;;;13.50;99.50;;;;;;5104490;27;20488;-79
2023/10/19 11:59:30;;;;;;;18.83;15.40;;;13.40;99.20;;;;;;5114247;27;20551;-79
2023/10/19 12:01:58;;;;;;;16.20;14.13;;;13.30;99.10;;;;;;5102809;27;20477;-79
2023/10/19 12:04:25;;;;;;;18.37;15.80;;;13.10;98.80;;;;;;5116368;27;20470;-78
2023/10/19 12:06:55;;;;;;;20.57;15.53;;;12.90;98.90;;;;;;5104966;27;21016;-79
2023/10/19 12:09:24;;;;;;;16.13;14.30;;;12.90;99.40;;;;;;5127360;27;20808;-79
2023/10/19 12:11:53;;;;;;;22.17;15.77;;;12.80;99.60;;;;;;5103303;27;20914;-79
2023/10/19 12:14:21;;;;;;;20.50;16.83;;;12.90;99.90;;;;;;5117288;27;20960;-79
2023/10/19 12:16:48;;;;;;;16.33;14.50;;;12.90;99.90;;;;;;5106687;27;20904;-78
2023/10/19 12:19:17;;;;;;;17.83;14.03;;;12.90;99.80;;;;;;5118078;27;20443;-78
2023/10/19 12:21:44;;;;;;;20.60;16.27;;;12.90;99.90;;;;;;5113147;27;20519;-78
2023/10/19 12:24:12;;;;;;;17.97;14.53;;;12.70;99.90;;;;;;5112904;27;20477;-78
2023/10/19 12:26:39;;;;;;;16.17;14.03;;;12.90;99.10;;;;;;5109938;27;20465;-79
2023/10/19 12:29:10;;;;;;;17.20;15.43;;;12.80;98.00;;;;;;5110614;27;20484;-78
2023/10/19 12:31:39;;;;;;;16.80;14.60;;;12.80;99.00;;;;;;5115270;27;20472;-79
2023/10/19 12:34:07;;;;;;;31.37;22.13;;;13.10;99.40;;;;;;5111344;27;20464;-79
2023/10/19 12:36:35;;;;;;;17.73;14.87;;;13.20;98.50;;;;;;5108999;27;20491;-79
2023/10/19 12:39:04;;;;;;;17.07;15.17;;;13.40;97.90;;;;;;5113935;27;20862;-79
2023/10/19 12:41:33;;;;;;;17.40;15.63;;;13.50;97.30;;;;;;5113566;27;20447;-78
2023/10/19 12:44:02;;;;;;;20.57;16.70;;;13.80;97.00;;;;;;5114570;27;20991;-79